<?xml version="1.0" encoding="UTF-8" standalone="no" ?>
<gpx xmlns="http://www.topografix.com/GPX/1/1" xmlns:xsi="http://www.w3.org/2001/XMLSchema-instance" xsi:schemaLocation="http://www.topografix.com/GPX/1/1 http://www.topografix.com/GPX/1/1/gpx.xsd" version="1.1" creator="VisuGPX - https://www.visugpx.com">
  <metadata>
    <name>OMS CHENOVE Marche du vendredi 23 mars 2012</name>
    <desc><![CDATA[De Corcelles à Flavignerot]]></desc>
  </metadata>
  <trk>
    <name><![CDATA[OMS CHENOVE Marche du vendredi 23 mars 2012_1]]></name>
    <trkseg>
      <trkpt lat="47.29225" lon="4.93968">
        <ele>460.651</ele>
        <time>2012-03-23T09:22:40Z</time>
      </trkpt>
      <trkpt lat="47.29238" lon="4.93957">
        <ele>455.543</ele>
        <time>2012-03-23T09:22:51Z</time>
      </trkpt>
      <trkpt lat="47.29257" lon="4.93958">
        <ele>460.163</ele>
        <time>2012-03-23T09:23:02Z</time>
      </trkpt>
      <trkpt lat="47.2927" lon="4.93963">
        <ele>463.143</ele>
        <time>2012-03-23T09:23:13Z</time>
      </trkpt>
      <trkpt lat="47.29285" lon="4.93967">
        <ele>455.806</ele>
        <time>2012-03-23T09:23:24Z</time>
      </trkpt>
      <trkpt lat="47.29298" lon="4.93975">
        <ele>455.935</ele>
        <time>2012-03-23T09:23:35Z</time>
      </trkpt>
      <trkpt lat="47.29312" lon="4.93982">
        <ele>457.328</ele>
        <time>2012-03-23T09:23:46Z</time>
      </trkpt>
      <trkpt lat="47.29327" lon="4.9399">
        <ele>455.882</ele>
        <time>2012-03-23T09:23:57Z</time>
      </trkpt>
      <trkpt lat="47.29342" lon="4.94">
        <ele>458.522</ele>
        <time>2012-03-23T09:24:08Z</time>
      </trkpt>
      <trkpt lat="47.29355" lon="4.94005">
        <ele>459.113</ele>
        <time>2012-03-23T09:24:19Z</time>
      </trkpt>
      <trkpt lat="47.29372" lon="4.94013">
        <ele>457.601</ele>
        <time>2012-03-23T09:24:30Z</time>
      </trkpt>
      <trkpt lat="47.29387" lon="4.94018">
        <ele>455.646</ele>
        <time>2012-03-23T09:24:41Z</time>
      </trkpt>
      <trkpt lat="47.29397" lon="4.94022">
        <ele>458.886</ele>
        <time>2012-03-23T09:24:52Z</time>
      </trkpt>
      <trkpt lat="47.29417" lon="4.94027">
        <ele>461.157</ele>
        <time>2012-03-23T09:25:03Z</time>
      </trkpt>
      <trkpt lat="47.29433" lon="4.94027">
        <ele>461.03</ele>
        <time>2012-03-23T09:25:14Z</time>
      </trkpt>
      <trkpt lat="47.29452" lon="4.94033">
        <ele>464.22</ele>
        <time>2012-03-23T09:25:25Z</time>
      </trkpt>
      <trkpt lat="47.29468" lon="4.9404">
        <ele>466.627</ele>
        <time>2012-03-23T09:25:36Z</time>
      </trkpt>
      <trkpt lat="47.29487" lon="4.94047">
        <ele>467.373</ele>
        <time>2012-03-23T09:25:47Z</time>
      </trkpt>
      <trkpt lat="47.29502" lon="4.9405">
        <ele>468.192</ele>
        <time>2012-03-23T09:25:58Z</time>
      </trkpt>
      <trkpt lat="47.29515" lon="4.94038">
        <ele>461.947</ele>
        <time>2012-03-23T09:26:09Z</time>
      </trkpt>
      <trkpt lat="47.29523" lon="4.94023">
        <ele>463.526</ele>
        <time>2012-03-23T09:26:20Z</time>
      </trkpt>
      <trkpt lat="47.29533" lon="4.94008">
        <ele>465.27</ele>
        <time>2012-03-23T09:26:31Z</time>
      </trkpt>
      <trkpt lat="47.29543" lon="4.93995">
        <ele>462.413</ele>
        <time>2012-03-23T09:26:42Z</time>
      </trkpt>
      <trkpt lat="47.29552" lon="4.9398">
        <ele>464.037</ele>
        <time>2012-03-23T09:26:53Z</time>
      </trkpt>
      <trkpt lat="47.2956" lon="4.9396">
        <ele>463.528</ele>
        <time>2012-03-23T09:27:04Z</time>
      </trkpt>
      <trkpt lat="47.29567" lon="4.93937">
        <ele>465.041</ele>
        <time>2012-03-23T09:27:15Z</time>
      </trkpt>
      <trkpt lat="47.29572" lon="4.93915">
        <ele>466.841</ele>
        <time>2012-03-23T09:27:26Z</time>
      </trkpt>
      <trkpt lat="47.29575" lon="4.93892">
        <ele>465.953</ele>
        <time>2012-03-23T09:27:37Z</time>
      </trkpt>
      <trkpt lat="47.2958" lon="4.93868">
        <ele>466.47</ele>
        <time>2012-03-23T09:27:48Z</time>
      </trkpt>
      <trkpt lat="47.29587" lon="4.93848">
        <ele>468.241</ele>
        <time>2012-03-23T09:27:59Z</time>
      </trkpt>
      <trkpt lat="47.29595" lon="4.93828">
        <ele>470.85</ele>
        <time>2012-03-23T09:28:10Z</time>
      </trkpt>
      <trkpt lat="47.296" lon="4.93808">
        <ele>472.488</ele>
        <time>2012-03-23T09:28:21Z</time>
      </trkpt>
      <trkpt lat="47.29605" lon="4.93787">
        <ele>473.232</ele>
        <time>2012-03-23T09:28:32Z</time>
      </trkpt>
      <trkpt lat="47.2961" lon="4.9377">
        <ele>471.559</ele>
        <time>2012-03-23T09:28:43Z</time>
      </trkpt>
      <trkpt lat="47.29615" lon="4.93755">
        <ele>474.248</ele>
        <time>2012-03-23T09:28:54Z</time>
      </trkpt>
      <trkpt lat="47.29623" lon="4.93745">
        <ele>476.287</ele>
        <time>2012-03-23T09:29:05Z</time>
      </trkpt>
      <trkpt lat="47.29632" lon="4.93732">
        <ele>475.783</ele>
        <time>2012-03-23T09:29:16Z</time>
      </trkpt>
      <trkpt lat="47.2964" lon="4.9372">
        <ele>477.379</ele>
        <time>2012-03-23T09:29:27Z</time>
      </trkpt>
      <trkpt lat="47.29655" lon="4.93712">
        <ele>479.415</ele>
        <time>2012-03-23T09:29:38Z</time>
      </trkpt>
      <trkpt lat="47.2967" lon="4.93705">
        <ele>479.852</ele>
        <time>2012-03-23T09:29:49Z</time>
      </trkpt>
      <trkpt lat="47.29687" lon="4.937">
        <ele>480.049</ele>
        <time>2012-03-23T09:30:00Z</time>
      </trkpt>
      <trkpt lat="47.297" lon="4.93693">
        <ele>480.962</ele>
        <time>2012-03-23T09:30:11Z</time>
      </trkpt>
      <trkpt lat="47.29715" lon="4.93687">
        <ele>484.057</ele>
        <time>2012-03-23T09:30:22Z</time>
      </trkpt>
      <trkpt lat="47.2973" lon="4.93678">
        <ele>485.658</ele>
        <time>2012-03-23T09:30:33Z</time>
      </trkpt>
      <trkpt lat="47.29745" lon="4.9367">
        <ele>485.21</ele>
        <time>2012-03-23T09:30:44Z</time>
      </trkpt>
      <trkpt lat="47.29758" lon="4.93663">
        <ele>486.036</ele>
        <time>2012-03-23T09:30:55Z</time>
      </trkpt>
      <trkpt lat="47.2977" lon="4.93648">
        <ele>485.945</ele>
        <time>2012-03-23T09:31:06Z</time>
      </trkpt>
      <trkpt lat="47.29782" lon="4.93633">
        <ele>486.673</ele>
        <time>2012-03-23T09:31:17Z</time>
      </trkpt>
      <trkpt lat="47.29792" lon="4.93623">
        <ele>486.532</ele>
        <time>2012-03-23T09:31:28Z</time>
      </trkpt>
      <trkpt lat="47.29802" lon="4.93612">
        <ele>487.031</ele>
        <time>2012-03-23T09:31:39Z</time>
      </trkpt>
      <trkpt lat="47.29812" lon="4.93597">
        <ele>486.8</ele>
        <time>2012-03-23T09:31:50Z</time>
      </trkpt>
      <trkpt lat="47.29823" lon="4.93582">
        <ele>486.515</ele>
        <time>2012-03-23T09:32:01Z</time>
      </trkpt>
      <trkpt lat="47.2983" lon="4.93572">
        <ele>486.595</ele>
        <time>2012-03-23T09:32:12Z</time>
      </trkpt>
      <trkpt lat="47.29838" lon="4.93562">
        <ele>487.64</ele>
        <time>2012-03-23T09:32:23Z</time>
      </trkpt>
      <trkpt lat="47.29848" lon="4.93552">
        <ele>487.818</ele>
        <time>2012-03-23T09:32:34Z</time>
      </trkpt>
      <trkpt lat="47.2986" lon="4.93537">
        <ele>486.989</ele>
        <time>2012-03-23T09:32:45Z</time>
      </trkpt>
      <trkpt lat="47.29873" lon="4.93523">
        <ele>485.692</ele>
        <time>2012-03-23T09:32:56Z</time>
      </trkpt>
      <trkpt lat="47.2989" lon="4.93503">
        <ele>485.481</ele>
        <time>2012-03-23T09:33:07Z</time>
      </trkpt>
      <trkpt lat="47.29902" lon="4.93492">
        <ele>484.246</ele>
        <time>2012-03-23T09:33:18Z</time>
      </trkpt>
      <trkpt lat="47.29912" lon="4.9348">
        <ele>483.555</ele>
        <time>2012-03-23T09:33:29Z</time>
      </trkpt>
      <trkpt lat="47.29922" lon="4.93463">
        <ele>484.322</ele>
        <time>2012-03-23T09:33:40Z</time>
      </trkpt>
      <trkpt lat="47.29932" lon="4.93447">
        <ele>481.771</ele>
        <time>2012-03-23T09:33:51Z</time>
      </trkpt>
      <trkpt lat="47.29938" lon="4.93427">
        <ele>481.314</ele>
        <time>2012-03-23T09:34:02Z</time>
      </trkpt>
      <trkpt lat="47.29948" lon="4.93405">
        <ele>482.632</ele>
        <time>2012-03-23T09:34:13Z</time>
      </trkpt>
      <trkpt lat="47.29955" lon="4.93382">
        <ele>483.33</ele>
        <time>2012-03-23T09:34:24Z</time>
      </trkpt>
      <trkpt lat="47.29963" lon="4.93355">
        <ele>485.135</ele>
        <time>2012-03-23T09:34:35Z</time>
      </trkpt>
      <trkpt lat="47.29967" lon="4.93327">
        <ele>482.28</ele>
        <time>2012-03-23T09:34:46Z</time>
      </trkpt>
      <trkpt lat="47.29972" lon="4.933">
        <ele>484.969</ele>
        <time>2012-03-23T09:34:57Z</time>
      </trkpt>
      <trkpt lat="47.29977" lon="4.9328">
        <ele>485.683</ele>
        <time>2012-03-23T09:35:08Z</time>
      </trkpt>
      <trkpt lat="47.29982" lon="4.93263">
        <ele>488.062</ele>
        <time>2012-03-23T09:35:19Z</time>
      </trkpt>
      <trkpt lat="47.2998" lon="4.93238">
        <ele>487.498</ele>
        <time>2012-03-23T09:35:30Z</time>
      </trkpt>
      <trkpt lat="47.29982" lon="4.93223">
        <ele>494.326</ele>
        <time>2012-03-23T09:35:41Z</time>
      </trkpt>
      <trkpt lat="47.29983" lon="4.93202">
        <ele>492.897</ele>
        <time>2012-03-23T09:35:52Z</time>
      </trkpt>
      <trkpt lat="47.29983" lon="4.93178">
        <ele>492.521</ele>
        <time>2012-03-23T09:36:03Z</time>
      </trkpt>
      <trkpt lat="47.29992" lon="4.93158">
        <ele>496.671</ele>
        <time>2012-03-23T09:36:14Z</time>
      </trkpt>
      <trkpt lat="47.30002" lon="4.93133">
        <ele>494.897</ele>
        <time>2012-03-23T09:36:25Z</time>
      </trkpt>
      <trkpt lat="47.30012" lon="4.93115">
        <ele>496.168</ele>
        <time>2012-03-23T09:36:36Z</time>
      </trkpt>
      <trkpt lat="47.30017" lon="4.93103">
        <ele>494.446</ele>
        <time>2012-03-23T09:36:47Z</time>
      </trkpt>
      <trkpt lat="47.30023" lon="4.93077">
        <ele>492.847</ele>
        <time>2012-03-23T09:36:58Z</time>
      </trkpt>
      <trkpt lat="47.30033" lon="4.93047">
        <ele>493.625</ele>
        <time>2012-03-23T09:37:09Z</time>
      </trkpt>
      <trkpt lat="47.3004" lon="4.93025">
        <ele>494.413</ele>
        <time>2012-03-23T09:37:20Z</time>
      </trkpt>
      <trkpt lat="47.30045" lon="4.93003">
        <ele>494.077</ele>
        <time>2012-03-23T09:37:31Z</time>
      </trkpt>
      <trkpt lat="47.30048" lon="4.92977">
        <ele>493.344</ele>
        <time>2012-03-23T09:37:42Z</time>
      </trkpt>
      <trkpt lat="47.3005" lon="4.92948">
        <ele>493.435</ele>
        <time>2012-03-23T09:37:53Z</time>
      </trkpt>
      <trkpt lat="47.3005" lon="4.92922">
        <ele>491.663</ele>
        <time>2012-03-23T09:38:04Z</time>
      </trkpt>
      <trkpt lat="47.30053" lon="4.92902">
        <ele>490.638</ele>
        <time>2012-03-23T09:38:15Z</time>
      </trkpt>
      <trkpt lat="47.3005" lon="4.92875">
        <ele>490.69</ele>
        <time>2012-03-23T09:38:26Z</time>
      </trkpt>
      <trkpt lat="47.3005" lon="4.92853">
        <ele>488.141</ele>
        <time>2012-03-23T09:38:37Z</time>
      </trkpt>
      <trkpt lat="47.30052" lon="4.9283">
        <ele>489.796</ele>
        <time>2012-03-23T09:38:48Z</time>
      </trkpt>
      <trkpt lat="47.30048" lon="4.92808">
        <ele>490.616</ele>
        <time>2012-03-23T09:38:59Z</time>
      </trkpt>
      <trkpt lat="47.30045" lon="4.92785">
        <ele>492.218</ele>
        <time>2012-03-23T09:39:10Z</time>
      </trkpt>
      <trkpt lat="47.30045" lon="4.92782">
        <ele>491.677</ele>
        <time>2012-03-23T09:39:21Z</time>
      </trkpt>
      <trkpt lat="47.30045" lon="4.92782">
        <ele>491.677</ele>
        <time>2012-03-23T09:39:32Z</time>
      </trkpt>
      <trkpt lat="47.30042" lon="4.92777">
        <ele>493.282</ele>
        <time>2012-03-23T09:39:43Z</time>
      </trkpt>
      <trkpt lat="47.3003" lon="4.92773">
        <ele>490.905</ele>
        <time>2012-03-23T09:39:54Z</time>
      </trkpt>
      <trkpt lat="47.30023" lon="4.92767">
        <ele>492.652</ele>
        <time>2012-03-23T09:40:05Z</time>
      </trkpt>
      <trkpt lat="47.30017" lon="4.92763">
        <ele>493.493</ele>
        <time>2012-03-23T09:40:16Z</time>
      </trkpt>
      <trkpt lat="47.30007" lon="4.92758">
        <ele>495.172</ele>
        <time>2012-03-23T09:40:27Z</time>
      </trkpt>
      <trkpt lat="47.30007" lon="4.92755">
        <ele>496.016</ele>
        <time>2012-03-23T09:40:38Z</time>
      </trkpt>
      <trkpt lat="47.3" lon="4.92752">
        <ele>496.645</ele>
        <time>2012-03-23T09:40:49Z</time>
      </trkpt>
      <trkpt lat="47.29993" lon="4.9275">
        <ele>497.695</ele>
        <time>2012-03-23T09:41:00Z</time>
      </trkpt>
      <trkpt lat="47.29992" lon="4.92745">
        <ele>498.51</ele>
        <time>2012-03-23T09:41:11Z</time>
      </trkpt>
      <trkpt lat="47.29988" lon="4.92738">
        <ele>497.003</ele>
        <time>2012-03-23T09:41:22Z</time>
      </trkpt>
      <trkpt lat="47.29982" lon="4.92737">
        <ele>496.052</ele>
        <time>2012-03-23T09:41:33Z</time>
      </trkpt>
      <trkpt lat="47.29975" lon="4.92737">
        <ele>497.545</ele>
        <time>2012-03-23T09:41:44Z</time>
      </trkpt>
      <trkpt lat="47.29973" lon="4.92735">
        <ele>497.954</ele>
        <time>2012-03-23T09:41:55Z</time>
      </trkpt>
      <trkpt lat="47.29973" lon="4.92735">
        <ele>498.102</ele>
        <time>2012-03-23T09:42:06Z</time>
      </trkpt>
      <trkpt lat="47.29972" lon="4.92733">
        <ele>498.17</ele>
        <time>2012-03-23T09:42:17Z</time>
      </trkpt>
      <trkpt lat="47.29967" lon="4.9273">
        <ele>500.01</ele>
        <time>2012-03-23T09:42:28Z</time>
      </trkpt>
      <trkpt lat="47.29962" lon="4.92728">
        <ele>502.479</ele>
        <time>2012-03-23T09:42:39Z</time>
      </trkpt>
      <trkpt lat="47.29957" lon="4.92723">
        <ele>505.253</ele>
        <time>2012-03-23T09:42:50Z</time>
      </trkpt>
      <trkpt lat="47.29952" lon="4.92722">
        <ele>506.38</ele>
        <time>2012-03-23T09:43:01Z</time>
      </trkpt>
      <trkpt lat="47.29952" lon="4.92722">
        <ele>506.38</ele>
        <time>2012-03-23T09:43:12Z</time>
      </trkpt>
      <trkpt lat="47.29945" lon="4.92717">
        <ele>505.717</ele>
        <time>2012-03-23T09:43:23Z</time>
      </trkpt>
      <trkpt lat="47.29943" lon="4.92715">
        <ele>506.941</ele>
        <time>2012-03-23T09:43:34Z</time>
      </trkpt>
      <trkpt lat="47.29943" lon="4.92715">
        <ele>506.907</ele>
        <time>2012-03-23T09:43:45Z</time>
      </trkpt>
      <trkpt lat="47.29942" lon="4.92715">
        <ele>507.008</ele>
        <time>2012-03-23T09:43:56Z</time>
      </trkpt>
      <trkpt lat="47.2994" lon="4.92713">
        <ele>506.905</ele>
        <time>2012-03-23T09:44:07Z</time>
      </trkpt>
      <trkpt lat="47.29938" lon="4.92712">
        <ele>507.512</ele>
        <time>2012-03-23T09:44:18Z</time>
      </trkpt>
      <trkpt lat="47.29937" lon="4.92712">
        <ele>508.241</ele>
        <time>2012-03-23T09:44:29Z</time>
      </trkpt>
      <trkpt lat="47.2993" lon="4.9271">
        <ele>510.328</ele>
        <time>2012-03-23T09:44:40Z</time>
      </trkpt>
      <trkpt lat="47.29927" lon="4.92708">
        <ele>509.85</ele>
        <time>2012-03-23T09:44:51Z</time>
      </trkpt>
      <trkpt lat="47.29923" lon="4.9271">
        <ele>511.115</ele>
        <time>2012-03-23T09:45:02Z</time>
      </trkpt>
      <trkpt lat="47.29918" lon="4.92708">
        <ele>513.452</ele>
        <time>2012-03-23T09:45:13Z</time>
      </trkpt>
      <trkpt lat="47.29917" lon="4.92708">
        <ele>514.681</ele>
        <time>2012-03-23T09:45:24Z</time>
      </trkpt>
      <trkpt lat="47.29915" lon="4.92707">
        <ele>516.543</ele>
        <time>2012-03-23T09:45:35Z</time>
      </trkpt>
      <trkpt lat="47.29913" lon="4.92707">
        <ele>516.682</ele>
        <time>2012-03-23T09:45:46Z</time>
      </trkpt>
      <trkpt lat="47.29908" lon="4.92707">
        <ele>522.231</ele>
        <time>2012-03-23T09:45:57Z</time>
      </trkpt>
      <trkpt lat="47.29907" lon="4.92707">
        <ele>524.113</ele>
        <time>2012-03-23T09:46:08Z</time>
      </trkpt>
      <trkpt lat="47.29905" lon="4.92708">
        <ele>524.962</ele>
        <time>2012-03-23T09:46:19Z</time>
      </trkpt>
      <trkpt lat="47.29903" lon="4.92707">
        <ele>527.362</ele>
        <time>2012-03-23T09:46:30Z</time>
      </trkpt>
      <trkpt lat="47.299" lon="4.9271">
        <ele>532.701</ele>
        <time>2012-03-23T09:46:41Z</time>
      </trkpt>
      <trkpt lat="47.29898" lon="4.9271">
        <ele>532.81</ele>
        <time>2012-03-23T09:46:52Z</time>
      </trkpt>
      <trkpt lat="47.29897" lon="4.92713">
        <ele>534.661</ele>
        <time>2012-03-23T09:47:03Z</time>
      </trkpt>
      <trkpt lat="47.29897" lon="4.92713">
        <ele>535.332</ele>
        <time>2012-03-23T09:47:14Z</time>
      </trkpt>
      <trkpt lat="47.29895" lon="4.92713">
        <ele>535.692</ele>
        <time>2012-03-23T09:47:25Z</time>
      </trkpt>
      <trkpt lat="47.29893" lon="4.92715">
        <ele>536.488</ele>
        <time>2012-03-23T09:47:36Z</time>
      </trkpt>
      <trkpt lat="47.29893" lon="4.92715">
        <ele>537.813</ele>
        <time>2012-03-23T09:47:47Z</time>
      </trkpt>
      <trkpt lat="47.29893" lon="4.92715">
        <ele>537.813</ele>
        <time>2012-03-23T09:47:58Z</time>
      </trkpt>
      <trkpt lat="47.29893" lon="4.92715">
        <ele>537.813</ele>
        <time>2012-03-23T09:48:09Z</time>
      </trkpt>
      <trkpt lat="47.29893" lon="4.92715">
        <ele>537.813</ele>
        <time>2012-03-23T09:48:20Z</time>
      </trkpt>
      <trkpt lat="47.29892" lon="4.92715">
        <ele>539.02</ele>
        <time>2012-03-23T09:48:31Z</time>
      </trkpt>
      <trkpt lat="47.29892" lon="4.92715">
        <ele>539.02</ele>
        <time>2012-03-23T09:48:42Z</time>
      </trkpt>
      <trkpt lat="47.2989" lon="4.92717">
        <ele>541.521</ele>
        <time>2012-03-23T09:48:53Z</time>
      </trkpt>
      <trkpt lat="47.2989" lon="4.92717">
        <ele>541.521</ele>
        <time>2012-03-23T09:49:04Z</time>
      </trkpt>
      <trkpt lat="47.2989" lon="4.92718">
        <ele>542.289</ele>
        <time>2012-03-23T09:49:15Z</time>
      </trkpt>
      <trkpt lat="47.29878" lon="4.92715">
        <ele>549.85</ele>
        <time>2012-03-23T09:49:26Z</time>
      </trkpt>
      <trkpt lat="47.2986" lon="4.9271">
        <ele>558.751</ele>
        <time>2012-03-23T09:49:37Z</time>
      </trkpt>
      <trkpt lat="47.29852" lon="4.92708">
        <ele>562.259</ele>
        <time>2012-03-23T09:49:48Z</time>
      </trkpt>
      <trkpt lat="47.29835" lon="4.92697">
        <ele>566.587</ele>
        <time>2012-03-23T09:49:59Z</time>
      </trkpt>
      <trkpt lat="47.29822" lon="4.92688">
        <ele>569.335</ele>
        <time>2012-03-23T09:50:10Z</time>
      </trkpt>
      <trkpt lat="47.2981" lon="4.92678">
        <ele>572.027</ele>
        <time>2012-03-23T09:50:21Z</time>
      </trkpt>
      <trkpt lat="47.29795" lon="4.92663">
        <ele>575.926</ele>
        <time>2012-03-23T09:50:32Z</time>
      </trkpt>
      <trkpt lat="47.29787" lon="4.92653">
        <ele>577.918</ele>
        <time>2012-03-23T09:50:43Z</time>
      </trkpt>
      <trkpt lat="47.29772" lon="4.92638">
        <ele>579.245</ele>
        <time>2012-03-23T09:50:54Z</time>
      </trkpt>
      <trkpt lat="47.29762" lon="4.92628">
        <ele>582.005</ele>
        <time>2012-03-23T09:51:05Z</time>
      </trkpt>
      <trkpt lat="47.2975" lon="4.92617">
        <ele>583.498</ele>
        <time>2012-03-23T09:51:16Z</time>
      </trkpt>
      <trkpt lat="47.29738" lon="4.92598">
        <ele>583.405</ele>
        <time>2012-03-23T09:51:27Z</time>
      </trkpt>
      <trkpt lat="47.29722" lon="4.92585">
        <ele>586.069</ele>
        <time>2012-03-23T09:51:38Z</time>
      </trkpt>
      <trkpt lat="47.29705" lon="4.92575">
        <ele>588.052</ele>
        <time>2012-03-23T09:51:49Z</time>
      </trkpt>
      <trkpt lat="47.29692" lon="4.9257">
        <ele>589.061</ele>
        <time>2012-03-23T09:52:00Z</time>
      </trkpt>
      <trkpt lat="47.29677" lon="4.9257">
        <ele>591.682</ele>
        <time>2012-03-23T09:52:11Z</time>
      </trkpt>
      <trkpt lat="47.29663" lon="4.92567">
        <ele>592.759</ele>
        <time>2012-03-23T09:52:22Z</time>
      </trkpt>
      <trkpt lat="47.29647" lon="4.92563">
        <ele>592.587</ele>
        <time>2012-03-23T09:52:33Z</time>
      </trkpt>
      <trkpt lat="47.29632" lon="4.92562">
        <ele>593.467</ele>
        <time>2012-03-23T09:52:44Z</time>
      </trkpt>
      <trkpt lat="47.29618" lon="4.9256">
        <ele>595.904</ele>
        <time>2012-03-23T09:52:55Z</time>
      </trkpt>
      <trkpt lat="47.29618" lon="4.9256">
        <ele>595.804</ele>
        <time>2012-03-23T09:53:06Z</time>
      </trkpt>
      <trkpt lat="47.29618" lon="4.9256">
        <ele>596.349</ele>
        <time>2012-03-23T09:53:17Z</time>
      </trkpt>
      <trkpt lat="47.29618" lon="4.9256">
        <ele>596.349</ele>
        <time>2012-03-23T09:53:28Z</time>
      </trkpt>
      <trkpt lat="47.29618" lon="4.9256">
        <ele>596.23</ele>
        <time>2012-03-23T09:53:39Z</time>
      </trkpt>
      <trkpt lat="47.29618" lon="4.9256">
        <ele>596.23</ele>
        <time>2012-03-23T09:53:50Z</time>
      </trkpt>
      <trkpt lat="47.29618" lon="4.9256">
        <ele>596.23</ele>
        <time>2012-03-23T09:54:01Z</time>
      </trkpt>
      <trkpt lat="47.29617" lon="4.9256">
        <ele>596.206</ele>
        <time>2012-03-23T09:54:12Z</time>
      </trkpt>
      <trkpt lat="47.29617" lon="4.9256">
        <ele>596.206</ele>
        <time>2012-03-23T09:54:23Z</time>
      </trkpt>
      <trkpt lat="47.29617" lon="4.9256">
        <ele>596.206</ele>
        <time>2012-03-23T09:54:34Z</time>
      </trkpt>
      <trkpt lat="47.29617" lon="4.9256">
        <ele>596.206</ele>
        <time>2012-03-23T09:54:45Z</time>
      </trkpt>
      <trkpt lat="47.29617" lon="4.9256">
        <ele>596.206</ele>
        <time>2012-03-23T09:54:56Z</time>
      </trkpt>
      <trkpt lat="47.29617" lon="4.9256">
        <ele>596.126</ele>
        <time>2012-03-23T09:55:07Z</time>
      </trkpt>
      <trkpt lat="47.29617" lon="4.9256">
        <ele>596.239</ele>
        <time>2012-03-23T09:55:18Z</time>
      </trkpt>
      <trkpt lat="47.29617" lon="4.9256">
        <ele>596.239</ele>
        <time>2012-03-23T09:55:29Z</time>
      </trkpt>
      <trkpt lat="47.29613" lon="4.9256">
        <ele>596.004</ele>
        <time>2012-03-23T09:55:40Z</time>
      </trkpt>
      <trkpt lat="47.29612" lon="4.9256">
        <ele>596.043</ele>
        <time>2012-03-23T09:55:51Z</time>
      </trkpt>
      <trkpt lat="47.29597" lon="4.92565">
        <ele>595.789</ele>
        <time>2012-03-23T09:56:02Z</time>
      </trkpt>
      <trkpt lat="47.29582" lon="4.92572">
        <ele>595.945</ele>
        <time>2012-03-23T09:56:13Z</time>
      </trkpt>
      <trkpt lat="47.29565" lon="4.92578">
        <ele>597.357</ele>
        <time>2012-03-23T09:56:24Z</time>
      </trkpt>
      <trkpt lat="47.29548" lon="4.92577">
        <ele>596.771</ele>
        <time>2012-03-23T09:56:35Z</time>
      </trkpt>
      <trkpt lat="47.29535" lon="4.92583">
        <ele>599.668</ele>
        <time>2012-03-23T09:56:46Z</time>
      </trkpt>
      <trkpt lat="47.2953" lon="4.926">
        <ele>600.123</ele>
        <time>2012-03-23T09:56:57Z</time>
      </trkpt>
      <trkpt lat="47.29525" lon="4.92618">
        <ele>601.354</ele>
        <time>2012-03-23T09:57:08Z</time>
      </trkpt>
      <trkpt lat="47.29518" lon="4.92637">
        <ele>602.94</ele>
        <time>2012-03-23T09:57:19Z</time>
      </trkpt>
      <trkpt lat="47.29513" lon="4.92657">
        <ele>603.397</ele>
        <time>2012-03-23T09:57:30Z</time>
      </trkpt>
      <trkpt lat="47.2951" lon="4.9267">
        <ele>602.553</ele>
        <time>2012-03-23T09:57:41Z</time>
      </trkpt>
      <trkpt lat="47.29505" lon="4.9269">
        <ele>593.8</ele>
        <time>2012-03-23T09:57:52Z</time>
      </trkpt>
      <trkpt lat="47.295" lon="4.92713">
        <ele>602.2</ele>
        <time>2012-03-23T09:58:03Z</time>
      </trkpt>
      <trkpt lat="47.29493" lon="4.92728">
        <ele>601.703</ele>
        <time>2012-03-23T09:58:14Z</time>
      </trkpt>
      <trkpt lat="47.29488" lon="4.9275">
        <ele>600.742</ele>
        <time>2012-03-23T09:58:25Z</time>
      </trkpt>
      <trkpt lat="47.2948" lon="4.92763">
        <ele>600.642</ele>
        <time>2012-03-23T09:58:36Z</time>
      </trkpt>
      <trkpt lat="47.29465" lon="4.92758">
        <ele>599.953</ele>
        <time>2012-03-23T09:58:47Z</time>
      </trkpt>
      <trkpt lat="47.2945" lon="4.92752">
        <ele>600.176</ele>
        <time>2012-03-23T09:58:58Z</time>
      </trkpt>
      <trkpt lat="47.29435" lon="4.92742">
        <ele>601.252</ele>
        <time>2012-03-23T09:59:09Z</time>
      </trkpt>
      <trkpt lat="47.29418" lon="4.92738">
        <ele>600.823</ele>
        <time>2012-03-23T09:59:20Z</time>
      </trkpt>
      <trkpt lat="47.29403" lon="4.92732">
        <ele>600.926</ele>
        <time>2012-03-23T09:59:31Z</time>
      </trkpt>
      <trkpt lat="47.2939" lon="4.92723">
        <ele>601.45</ele>
        <time>2012-03-23T09:59:42Z</time>
      </trkpt>
      <trkpt lat="47.29375" lon="4.92718">
        <ele>600.628</ele>
        <time>2012-03-23T09:59:53Z</time>
      </trkpt>
      <trkpt lat="47.29358" lon="4.92708">
        <ele>601.626</ele>
        <time>2012-03-23T10:00:04Z</time>
      </trkpt>
      <trkpt lat="47.29345" lon="4.92702">
        <ele>603.518</ele>
        <time>2012-03-23T10:00:15Z</time>
      </trkpt>
      <trkpt lat="47.2933" lon="4.92695">
        <ele>603.552</ele>
        <time>2012-03-23T10:00:26Z</time>
      </trkpt>
      <trkpt lat="47.29317" lon="4.92685">
        <ele>602.913</ele>
        <time>2012-03-23T10:00:37Z</time>
      </trkpt>
      <trkpt lat="47.29302" lon="4.92678">
        <ele>602.159</ele>
        <time>2012-03-23T10:00:48Z</time>
      </trkpt>
      <trkpt lat="47.29288" lon="4.9267">
        <ele>602.006</ele>
        <time>2012-03-23T10:00:59Z</time>
      </trkpt>
      <trkpt lat="47.29273" lon="4.92662">
        <ele>601.523</ele>
        <time>2012-03-23T10:01:10Z</time>
      </trkpt>
      <trkpt lat="47.29258" lon="4.92653">
        <ele>600.39</ele>
        <time>2012-03-23T10:01:21Z</time>
      </trkpt>
      <trkpt lat="47.29255" lon="4.92637">
        <ele>601.602</ele>
        <time>2012-03-23T10:01:32Z</time>
      </trkpt>
      <trkpt lat="47.29258" lon="4.92618">
        <ele>603.016</ele>
        <time>2012-03-23T10:01:43Z</time>
      </trkpt>
      <trkpt lat="47.29252" lon="4.926">
        <ele>601.793</ele>
        <time>2012-03-23T10:01:54Z</time>
      </trkpt>
      <trkpt lat="47.29238" lon="4.92593">
        <ele>601.371</ele>
        <time>2012-03-23T10:02:05Z</time>
      </trkpt>
      <trkpt lat="47.29225" lon="4.92585">
        <ele>601.038</ele>
        <time>2012-03-23T10:02:17Z</time>
      </trkpt>
      <trkpt lat="47.29212" lon="4.92578">
        <ele>601.986</ele>
        <time>2012-03-23T10:02:28Z</time>
      </trkpt>
      <trkpt lat="47.292" lon="4.92573">
        <ele>602.722</ele>
        <time>2012-03-23T10:02:39Z</time>
      </trkpt>
      <trkpt lat="47.29185" lon="4.92565">
        <ele>601.105</ele>
        <time>2012-03-23T10:02:50Z</time>
      </trkpt>
      <trkpt lat="47.29168" lon="4.92557">
        <ele>600.131</ele>
        <time>2012-03-23T10:03:01Z</time>
      </trkpt>
      <trkpt lat="47.29155" lon="4.92547">
        <ele>599.272</ele>
        <time>2012-03-23T10:03:12Z</time>
      </trkpt>
      <trkpt lat="47.2914" lon="4.9254">
        <ele>600.136</ele>
        <time>2012-03-23T10:03:23Z</time>
      </trkpt>
      <trkpt lat="47.29127" lon="4.92532">
        <ele>600.275</ele>
        <time>2012-03-23T10:03:34Z</time>
      </trkpt>
      <trkpt lat="47.29112" lon="4.92525">
        <ele>601.075</ele>
        <time>2012-03-23T10:03:45Z</time>
      </trkpt>
      <trkpt lat="47.29098" lon="4.92517">
        <ele>601.71</ele>
        <time>2012-03-23T10:03:56Z</time>
      </trkpt>
      <trkpt lat="47.29085" lon="4.9251">
        <ele>601.684</ele>
        <time>2012-03-23T10:04:07Z</time>
      </trkpt>
      <trkpt lat="47.2907" lon="4.92502">
        <ele>602.53</ele>
        <time>2012-03-23T10:04:18Z</time>
      </trkpt>
      <trkpt lat="47.29053" lon="4.92492">
        <ele>601.974</ele>
        <time>2012-03-23T10:04:29Z</time>
      </trkpt>
      <trkpt lat="47.29042" lon="4.92483">
        <ele>601.462</ele>
        <time>2012-03-23T10:04:40Z</time>
      </trkpt>
      <trkpt lat="47.29027" lon="4.92477">
        <ele>601.002</ele>
        <time>2012-03-23T10:04:51Z</time>
      </trkpt>
      <trkpt lat="47.29012" lon="4.92468">
        <ele>600.568</ele>
        <time>2012-03-23T10:05:02Z</time>
      </trkpt>
      <trkpt lat="47.28997" lon="4.92462">
        <ele>598.777</ele>
        <time>2012-03-23T10:05:13Z</time>
      </trkpt>
      <trkpt lat="47.28978" lon="4.92453">
        <ele>600.527</ele>
        <time>2012-03-23T10:05:24Z</time>
      </trkpt>
      <trkpt lat="47.28965" lon="4.92447">
        <ele>600.899</ele>
        <time>2012-03-23T10:05:35Z</time>
      </trkpt>
      <trkpt lat="47.28952" lon="4.92437">
        <ele>602.042</ele>
        <time>2012-03-23T10:05:46Z</time>
      </trkpt>
      <trkpt lat="47.28937" lon="4.9243">
        <ele>602.156</ele>
        <time>2012-03-23T10:05:57Z</time>
      </trkpt>
      <trkpt lat="47.28923" lon="4.92423">
        <ele>601.268</ele>
        <time>2012-03-23T10:06:08Z</time>
      </trkpt>
      <trkpt lat="47.28917" lon="4.92407">
        <ele>601.332</ele>
        <time>2012-03-23T10:06:19Z</time>
      </trkpt>
      <trkpt lat="47.28922" lon="4.92383">
        <ele>600.508</ele>
        <time>2012-03-23T10:06:30Z</time>
      </trkpt>
      <trkpt lat="47.28928" lon="4.92362">
        <ele>601.013</ele>
        <time>2012-03-23T10:06:41Z</time>
      </trkpt>
      <trkpt lat="47.28935" lon="4.92343">
        <ele>601.452</ele>
        <time>2012-03-23T10:06:52Z</time>
      </trkpt>
      <trkpt lat="47.28943" lon="4.92322">
        <ele>602.689</ele>
        <time>2012-03-23T10:07:03Z</time>
      </trkpt>
      <trkpt lat="47.28953" lon="4.92303">
        <ele>602.69</ele>
        <time>2012-03-23T10:07:14Z</time>
      </trkpt>
      <trkpt lat="47.2895" lon="4.92283">
        <ele>603.321</ele>
        <time>2012-03-23T10:07:25Z</time>
      </trkpt>
      <trkpt lat="47.28935" lon="4.92268">
        <ele>603.434</ele>
        <time>2012-03-23T10:07:36Z</time>
      </trkpt>
      <trkpt lat="47.28922" lon="4.92253">
        <ele>603.804</ele>
        <time>2012-03-23T10:07:47Z</time>
      </trkpt>
      <trkpt lat="47.28907" lon="4.92238">
        <ele>605.009</ele>
        <time>2012-03-23T10:07:58Z</time>
      </trkpt>
      <trkpt lat="47.28892" lon="4.92223">
        <ele>605.239</ele>
        <time>2012-03-23T10:08:09Z</time>
      </trkpt>
      <trkpt lat="47.28878" lon="4.92212">
        <ele>605.985</ele>
        <time>2012-03-23T10:08:20Z</time>
      </trkpt>
      <trkpt lat="47.28863" lon="4.92198">
        <ele>607.641</ele>
        <time>2012-03-23T10:08:31Z</time>
      </trkpt>
      <trkpt lat="47.28852" lon="4.92188">
        <ele>608.824</ele>
        <time>2012-03-23T10:08:42Z</time>
      </trkpt>
      <trkpt lat="47.28835" lon="4.92178">
        <ele>609.643</ele>
        <time>2012-03-23T10:08:53Z</time>
      </trkpt>
      <trkpt lat="47.2882" lon="4.92172">
        <ele>609.319</ele>
        <time>2012-03-23T10:09:04Z</time>
      </trkpt>
      <trkpt lat="47.28805" lon="4.92167">
        <ele>609.629</ele>
        <time>2012-03-23T10:09:15Z</time>
      </trkpt>
      <trkpt lat="47.2879" lon="4.92158">
        <ele>609.247</ele>
        <time>2012-03-23T10:09:26Z</time>
      </trkpt>
      <trkpt lat="47.28775" lon="4.92152">
        <ele>610.957</ele>
        <time>2012-03-23T10:09:37Z</time>
      </trkpt>
      <trkpt lat="47.2876" lon="4.92147">
        <ele>611.273</ele>
        <time>2012-03-23T10:09:48Z</time>
      </trkpt>
      <trkpt lat="47.28745" lon="4.92142">
        <ele>609.852</ele>
        <time>2012-03-23T10:09:59Z</time>
      </trkpt>
      <trkpt lat="47.28728" lon="4.92138">
        <ele>609.497</ele>
        <time>2012-03-23T10:10:10Z</time>
      </trkpt>
      <trkpt lat="47.28713" lon="4.92135">
        <ele>608.861</ele>
        <time>2012-03-23T10:10:21Z</time>
      </trkpt>
      <trkpt lat="47.28697" lon="4.9213">
        <ele>609.869</ele>
        <time>2012-03-23T10:10:32Z</time>
      </trkpt>
      <trkpt lat="47.28682" lon="4.92128">
        <ele>611.64</ele>
        <time>2012-03-23T10:10:43Z</time>
      </trkpt>
      <trkpt lat="47.28667" lon="4.92125">
        <ele>612.724</ele>
        <time>2012-03-23T10:10:54Z</time>
      </trkpt>
      <trkpt lat="47.2865" lon="4.92122">
        <ele>614.003</ele>
        <time>2012-03-23T10:11:05Z</time>
      </trkpt>
      <trkpt lat="47.28635" lon="4.9212">
        <ele>614.387</ele>
        <time>2012-03-23T10:11:16Z</time>
      </trkpt>
      <trkpt lat="47.28618" lon="4.92117">
        <ele>613.968</ele>
        <time>2012-03-23T10:11:27Z</time>
      </trkpt>
      <trkpt lat="47.28605" lon="4.92113">
        <ele>613.353</ele>
        <time>2012-03-23T10:11:38Z</time>
      </trkpt>
      <trkpt lat="47.2859" lon="4.9211">
        <ele>612.523</ele>
        <time>2012-03-23T10:11:49Z</time>
      </trkpt>
      <trkpt lat="47.28573" lon="4.92107">
        <ele>611.804</ele>
        <time>2012-03-23T10:12:00Z</time>
      </trkpt>
      <trkpt lat="47.28562" lon="4.92105">
        <ele>610.374</ele>
        <time>2012-03-23T10:12:11Z</time>
      </trkpt>
      <trkpt lat="47.28545" lon="4.92102">
        <ele>609.394</ele>
        <time>2012-03-23T10:12:22Z</time>
      </trkpt>
      <trkpt lat="47.28527" lon="4.92097">
        <ele>607.402</ele>
        <time>2012-03-23T10:12:33Z</time>
      </trkpt>
      <trkpt lat="47.28512" lon="4.92093">
        <ele>604.837</ele>
        <time>2012-03-23T10:12:44Z</time>
      </trkpt>
      <trkpt lat="47.28495" lon="4.92088">
        <ele>602.156</ele>
        <time>2012-03-23T10:12:55Z</time>
      </trkpt>
      <trkpt lat="47.2848" lon="4.92083">
        <ele>601.064</ele>
        <time>2012-03-23T10:13:06Z</time>
      </trkpt>
      <trkpt lat="47.28463" lon="4.92078">
        <ele>599.816</ele>
        <time>2012-03-23T10:13:17Z</time>
      </trkpt>
      <trkpt lat="47.28448" lon="4.92075">
        <ele>597.105</ele>
        <time>2012-03-23T10:13:28Z</time>
      </trkpt>
      <trkpt lat="47.28445" lon="4.92065">
        <ele>596.848</ele>
        <time>2012-03-23T10:13:39Z</time>
      </trkpt>
      <trkpt lat="47.28443" lon="4.92063">
        <ele>596.291</ele>
        <time>2012-03-23T10:13:50Z</time>
      </trkpt>
      <trkpt lat="47.28438" lon="4.92055">
        <ele>595.108</ele>
        <time>2012-03-23T10:14:01Z</time>
      </trkpt>
      <trkpt lat="47.2843" lon="4.92045">
        <ele>594.693</ele>
        <time>2012-03-23T10:14:12Z</time>
      </trkpt>
      <trkpt lat="47.28422" lon="4.92035">
        <ele>593.235</ele>
        <time>2012-03-23T10:14:23Z</time>
      </trkpt>
      <trkpt lat="47.28412" lon="4.92023">
        <ele>593.092</ele>
        <time>2012-03-23T10:14:34Z</time>
      </trkpt>
      <trkpt lat="47.284" lon="4.92018">
        <ele>592.258</ele>
        <time>2012-03-23T10:14:45Z</time>
      </trkpt>
      <trkpt lat="47.28395" lon="4.92008">
        <ele>591.995</ele>
        <time>2012-03-23T10:14:56Z</time>
      </trkpt>
      <trkpt lat="47.28388" lon="4.91993">
        <ele>590.96</ele>
        <time>2012-03-23T10:15:07Z</time>
      </trkpt>
      <trkpt lat="47.2838" lon="4.91982">
        <ele>588.916</ele>
        <time>2012-03-23T10:15:18Z</time>
      </trkpt>
      <trkpt lat="47.2837" lon="4.91972">
        <ele>587.832</ele>
        <time>2012-03-23T10:15:29Z</time>
      </trkpt>
      <trkpt lat="47.28367" lon="4.91968">
        <ele>588.358</ele>
        <time>2012-03-23T10:15:40Z</time>
      </trkpt>
      <trkpt lat="47.28365" lon="4.91967">
        <ele>590.859</ele>
        <time>2012-03-23T10:15:51Z</time>
      </trkpt>
      <trkpt lat="47.28365" lon="4.91967">
        <ele>590.469</ele>
        <time>2012-03-23T10:16:02Z</time>
      </trkpt>
      <trkpt lat="47.28363" lon="4.91967">
        <ele>590.023</ele>
        <time>2012-03-23T10:16:13Z</time>
      </trkpt>
      <trkpt lat="47.28363" lon="4.91967">
        <ele>589.999</ele>
        <time>2012-03-23T10:16:24Z</time>
      </trkpt>
      <trkpt lat="47.28363" lon="4.91963">
        <ele>590.238</ele>
        <time>2012-03-23T10:16:35Z</time>
      </trkpt>
      <trkpt lat="47.28363" lon="4.91963">
        <ele>590.238</ele>
        <time>2012-03-23T10:16:46Z</time>
      </trkpt>
      <trkpt lat="47.28362" lon="4.91957">
        <ele>587.979</ele>
        <time>2012-03-23T10:16:57Z</time>
      </trkpt>
      <trkpt lat="47.2836" lon="4.9194">
        <ele>585.829</ele>
        <time>2012-03-23T10:17:08Z</time>
      </trkpt>
      <trkpt lat="47.2836" lon="4.91927">
        <ele>584.651</ele>
        <time>2012-03-23T10:17:19Z</time>
      </trkpt>
      <trkpt lat="47.28362" lon="4.91918">
        <ele>583.599</ele>
        <time>2012-03-23T10:17:30Z</time>
      </trkpt>
      <trkpt lat="47.28365" lon="4.91912">
        <ele>581.016</ele>
        <time>2012-03-23T10:17:41Z</time>
      </trkpt>
      <trkpt lat="47.28365" lon="4.91908">
        <ele>577.819</ele>
        <time>2012-03-23T10:17:52Z</time>
      </trkpt>
      <trkpt lat="47.28368" lon="4.91898">
        <ele>575.652</ele>
        <time>2012-03-23T10:18:03Z</time>
      </trkpt>
      <trkpt lat="47.28372" lon="4.91892">
        <ele>573.999</ele>
        <time>2012-03-23T10:18:14Z</time>
      </trkpt>
      <trkpt lat="47.28375" lon="4.91873">
        <ele>569.353</ele>
        <time>2012-03-23T10:18:25Z</time>
      </trkpt>
      <trkpt lat="47.2838" lon="4.91853">
        <ele>565.253</ele>
        <time>2012-03-23T10:18:36Z</time>
      </trkpt>
      <trkpt lat="47.28385" lon="4.91843">
        <ele>560.722</ele>
        <time>2012-03-23T10:18:47Z</time>
      </trkpt>
      <trkpt lat="47.28393" lon="4.91825">
        <ele>558.734</ele>
        <time>2012-03-23T10:18:58Z</time>
      </trkpt>
      <trkpt lat="47.28397" lon="4.9182">
        <ele>558.178</ele>
        <time>2012-03-23T10:19:09Z</time>
      </trkpt>
      <trkpt lat="47.28417" lon="4.91818">
        <ele>555.574</ele>
        <time>2012-03-23T10:19:20Z</time>
      </trkpt>
      <trkpt lat="47.28433" lon="4.9182">
        <ele>549.054</ele>
        <time>2012-03-23T10:19:31Z</time>
      </trkpt>
      <trkpt lat="47.28443" lon="4.9182">
        <ele>545.956</ele>
        <time>2012-03-23T10:19:42Z</time>
      </trkpt>
      <trkpt lat="47.28447" lon="4.91817">
        <ele>544.556</ele>
        <time>2012-03-23T10:19:53Z</time>
      </trkpt>
      <trkpt lat="47.28447" lon="4.91817">
        <ele>544.556</ele>
        <time>2012-03-23T10:20:04Z</time>
      </trkpt>
      <trkpt lat="47.28447" lon="4.91813">
        <ele>545.331</ele>
        <time>2012-03-23T10:20:15Z</time>
      </trkpt>
      <trkpt lat="47.28447" lon="4.91813">
        <ele>545.331</ele>
        <time>2012-03-23T10:20:26Z</time>
      </trkpt>
      <trkpt lat="47.28447" lon="4.91813">
        <ele>545.344</ele>
        <time>2012-03-23T10:20:37Z</time>
      </trkpt>
      <trkpt lat="47.28447" lon="4.91813">
        <ele>544.856</ele>
        <time>2012-03-23T10:20:48Z</time>
      </trkpt>
      <trkpt lat="47.28447" lon="4.91813">
        <ele>544.564</ele>
        <time>2012-03-23T10:20:59Z</time>
      </trkpt>
      <trkpt lat="47.28447" lon="4.91813">
        <ele>544.977</ele>
        <time>2012-03-23T10:21:10Z</time>
      </trkpt>
      <trkpt lat="47.28447" lon="4.91813">
        <ele>544.977</ele>
        <time>2012-03-23T10:21:21Z</time>
      </trkpt>
      <trkpt lat="47.28447" lon="4.91813">
        <ele>544.977</ele>
        <time>2012-03-23T10:21:32Z</time>
      </trkpt>
      <trkpt lat="47.28447" lon="4.91813">
        <ele>544.977</ele>
        <time>2012-03-23T10:21:43Z</time>
      </trkpt>
      <trkpt lat="47.28447" lon="4.91813">
        <ele>544.977</ele>
        <time>2012-03-23T10:21:54Z</time>
      </trkpt>
      <trkpt lat="47.28447" lon="4.91813">
        <ele>544.559</ele>
        <time>2012-03-23T10:22:05Z</time>
      </trkpt>
      <trkpt lat="47.28447" lon="4.91813">
        <ele>544.384</ele>
        <time>2012-03-23T10:22:16Z</time>
      </trkpt>
      <trkpt lat="47.28453" lon="4.91812">
        <ele>543.645</ele>
        <time>2012-03-23T10:22:27Z</time>
      </trkpt>
      <trkpt lat="47.28465" lon="4.91817">
        <ele>542.078</ele>
        <time>2012-03-23T10:22:38Z</time>
      </trkpt>
      <trkpt lat="47.28475" lon="4.9182">
        <ele>541.031</ele>
        <time>2012-03-23T10:22:49Z</time>
      </trkpt>
      <trkpt lat="47.2849" lon="4.91817">
        <ele>540.761</ele>
        <time>2012-03-23T10:23:00Z</time>
      </trkpt>
      <trkpt lat="47.28507" lon="4.91818">
        <ele>537.684</ele>
        <time>2012-03-23T10:23:11Z</time>
      </trkpt>
      <trkpt lat="47.28517" lon="4.91818">
        <ele>536.317</ele>
        <time>2012-03-23T10:23:22Z</time>
      </trkpt>
      <trkpt lat="47.2853" lon="4.91822">
        <ele>535.41</ele>
        <time>2012-03-23T10:23:33Z</time>
      </trkpt>
      <trkpt lat="47.28543" lon="4.91823">
        <ele>534.327</ele>
        <time>2012-03-23T10:23:44Z</time>
      </trkpt>
      <trkpt lat="47.28558" lon="4.91827">
        <ele>533.479</ele>
        <time>2012-03-23T10:23:55Z</time>
      </trkpt>
      <trkpt lat="47.28575" lon="4.9183">
        <ele>532.492</ele>
        <time>2012-03-23T10:24:06Z</time>
      </trkpt>
      <trkpt lat="47.28585" lon="4.91835">
        <ele>531.024</ele>
        <time>2012-03-23T10:24:17Z</time>
      </trkpt>
      <trkpt lat="47.28605" lon="4.91835">
        <ele>531.791</ele>
        <time>2012-03-23T10:24:28Z</time>
      </trkpt>
      <trkpt lat="47.28618" lon="4.91833">
        <ele>529.181</ele>
        <time>2012-03-23T10:24:39Z</time>
      </trkpt>
      <trkpt lat="47.2863" lon="4.91825">
        <ele>526.763</ele>
        <time>2012-03-23T10:24:50Z</time>
      </trkpt>
      <trkpt lat="47.28645" lon="4.9182">
        <ele>524.324</ele>
        <time>2012-03-23T10:25:01Z</time>
      </trkpt>
      <trkpt lat="47.28653" lon="4.91817">
        <ele>522.301</ele>
        <time>2012-03-23T10:25:12Z</time>
      </trkpt>
      <trkpt lat="47.28663" lon="4.91807">
        <ele>518.365</ele>
        <time>2012-03-23T10:25:23Z</time>
      </trkpt>
      <trkpt lat="47.28678" lon="4.91793">
        <ele>513.97</ele>
        <time>2012-03-23T10:25:34Z</time>
      </trkpt>
      <trkpt lat="47.28695" lon="4.91777">
        <ele>512.507</ele>
        <time>2012-03-23T10:25:45Z</time>
      </trkpt>
      <trkpt lat="47.28705" lon="4.91765">
        <ele>511.334</ele>
        <time>2012-03-23T10:25:56Z</time>
      </trkpt>
      <trkpt lat="47.28715" lon="4.91752">
        <ele>507.699</ele>
        <time>2012-03-23T10:26:07Z</time>
      </trkpt>
      <trkpt lat="47.28723" lon="4.91738">
        <ele>505.343</ele>
        <time>2012-03-23T10:26:18Z</time>
      </trkpt>
      <trkpt lat="47.28735" lon="4.9172">
        <ele>501.064</ele>
        <time>2012-03-23T10:26:29Z</time>
      </trkpt>
      <trkpt lat="47.28748" lon="4.917">
        <ele>497.206</ele>
        <time>2012-03-23T10:26:40Z</time>
      </trkpt>
      <trkpt lat="47.2876" lon="4.91688">
        <ele>493.732</ele>
        <time>2012-03-23T10:26:51Z</time>
      </trkpt>
      <trkpt lat="47.28762" lon="4.91687">
        <ele>494.192</ele>
        <time>2012-03-23T10:27:02Z</time>
      </trkpt>
      <trkpt lat="47.28763" lon="4.91683">
        <ele>494.218</ele>
        <time>2012-03-23T10:27:13Z</time>
      </trkpt>
      <trkpt lat="47.28768" lon="4.9167">
        <ele>491.429</ele>
        <time>2012-03-23T10:27:24Z</time>
      </trkpt>
      <trkpt lat="47.28772" lon="4.91658">
        <ele>489.451</ele>
        <time>2012-03-23T10:27:35Z</time>
      </trkpt>
      <trkpt lat="47.28775" lon="4.91647">
        <ele>487.082</ele>
        <time>2012-03-23T10:27:46Z</time>
      </trkpt>
      <trkpt lat="47.28777" lon="4.91623">
        <ele>478.581</ele>
        <time>2012-03-23T10:27:57Z</time>
      </trkpt>
      <trkpt lat="47.28775" lon="4.9161">
        <ele>475.83</ele>
        <time>2012-03-23T10:28:08Z</time>
      </trkpt>
      <trkpt lat="47.28773" lon="4.916">
        <ele>474.329</ele>
        <time>2012-03-23T10:28:19Z</time>
      </trkpt>
      <trkpt lat="47.2877" lon="4.91597">
        <ele>472.771</ele>
        <time>2012-03-23T10:28:30Z</time>
      </trkpt>
      <trkpt lat="47.28767" lon="4.9159">
        <ele>471.939</ele>
        <time>2012-03-23T10:28:41Z</time>
      </trkpt>
      <trkpt lat="47.28762" lon="4.91582">
        <ele>468.189</ele>
        <time>2012-03-23T10:28:52Z</time>
      </trkpt>
      <trkpt lat="47.28757" lon="4.91577">
        <ele>465.242</ele>
        <time>2012-03-23T10:29:03Z</time>
      </trkpt>
      <trkpt lat="47.28755" lon="4.91573">
        <ele>465.489</ele>
        <time>2012-03-23T10:29:14Z</time>
      </trkpt>
      <trkpt lat="47.28752" lon="4.91567">
        <ele>465.351</ele>
        <time>2012-03-23T10:29:25Z</time>
      </trkpt>
      <trkpt lat="47.28745" lon="4.91558">
        <ele>464.286</ele>
        <time>2012-03-23T10:29:36Z</time>
      </trkpt>
      <trkpt lat="47.28745" lon="4.91555">
        <ele>462.807</ele>
        <time>2012-03-23T10:29:47Z</time>
      </trkpt>
      <trkpt lat="47.28745" lon="4.9155">
        <ele>463.807</ele>
        <time>2012-03-23T10:29:58Z</time>
      </trkpt>
      <trkpt lat="47.28743" lon="4.91543">
        <ele>464.517</ele>
        <time>2012-03-23T10:30:09Z</time>
      </trkpt>
      <trkpt lat="47.28743" lon="4.9154">
        <ele>463.947</ele>
        <time>2012-03-23T10:30:20Z</time>
      </trkpt>
      <trkpt lat="47.28743" lon="4.91538">
        <ele>463.938</ele>
        <time>2012-03-23T10:30:31Z</time>
      </trkpt>
      <trkpt lat="47.28743" lon="4.91537">
        <ele>464.678</ele>
        <time>2012-03-23T10:30:42Z</time>
      </trkpt>
      <trkpt lat="47.28742" lon="4.91535">
        <ele>465.431</ele>
        <time>2012-03-23T10:30:53Z</time>
      </trkpt>
      <trkpt lat="47.28742" lon="4.91533">
        <ele>466.095</ele>
        <time>2012-03-23T10:31:04Z</time>
      </trkpt>
      <trkpt lat="47.28742" lon="4.91533">
        <ele>466.095</ele>
        <time>2012-03-23T10:31:15Z</time>
      </trkpt>
      <trkpt lat="47.28742" lon="4.91533">
        <ele>465.676</ele>
        <time>2012-03-23T10:31:26Z</time>
      </trkpt>
      <trkpt lat="47.28742" lon="4.91533">
        <ele>465.676</ele>
        <time>2012-03-23T10:31:37Z</time>
      </trkpt>
      <trkpt lat="47.28742" lon="4.91533">
        <ele>465.926</ele>
        <time>2012-03-23T10:31:48Z</time>
      </trkpt>
      <trkpt lat="47.28742" lon="4.91533">
        <ele>465.926</ele>
        <time>2012-03-23T10:31:59Z</time>
      </trkpt>
      <trkpt lat="47.28742" lon="4.9153">
        <ele>465.554</ele>
        <time>2012-03-23T10:32:10Z</time>
      </trkpt>
      <trkpt lat="47.28742" lon="4.91525">
        <ele>464.518</ele>
        <time>2012-03-23T10:32:21Z</time>
      </trkpt>
      <trkpt lat="47.28742" lon="4.91515">
        <ele>463.136</ele>
        <time>2012-03-23T10:32:32Z</time>
      </trkpt>
      <trkpt lat="47.28745" lon="4.91507">
        <ele>461.315</ele>
        <time>2012-03-23T10:32:43Z</time>
      </trkpt>
      <trkpt lat="47.28745" lon="4.915">
        <ele>459.391</ele>
        <time>2012-03-23T10:32:54Z</time>
      </trkpt>
      <trkpt lat="47.28743" lon="4.91492">
        <ele>458.717</ele>
        <time>2012-03-23T10:33:05Z</time>
      </trkpt>
      <trkpt lat="47.28745" lon="4.91485">
        <ele>458.186</ele>
        <time>2012-03-23T10:33:16Z</time>
      </trkpt>
      <trkpt lat="47.2875" lon="4.91463">
        <ele>456.303</ele>
        <time>2012-03-23T10:33:27Z</time>
      </trkpt>
      <trkpt lat="47.28757" lon="4.91445">
        <ele>453.771</ele>
        <time>2012-03-23T10:33:38Z</time>
      </trkpt>
      <trkpt lat="47.28765" lon="4.91427">
        <ele>450.487</ele>
        <time>2012-03-23T10:33:49Z</time>
      </trkpt>
      <trkpt lat="47.28772" lon="4.91415">
        <ele>448.095</ele>
        <time>2012-03-23T10:34:00Z</time>
      </trkpt>
      <trkpt lat="47.28785" lon="4.91392">
        <ele>446.316</ele>
        <time>2012-03-23T10:34:11Z</time>
      </trkpt>
      <trkpt lat="47.28795" lon="4.9137">
        <ele>442.803</ele>
        <time>2012-03-23T10:34:22Z</time>
      </trkpt>
      <trkpt lat="47.28798" lon="4.91355">
        <ele>439.214</ele>
        <time>2012-03-23T10:34:33Z</time>
      </trkpt>
      <trkpt lat="47.28807" lon="4.91335">
        <ele>433.518</ele>
        <time>2012-03-23T10:34:44Z</time>
      </trkpt>
      <trkpt lat="47.28817" lon="4.9132">
        <ele>424.074</ele>
        <time>2012-03-23T10:34:55Z</time>
      </trkpt>
      <trkpt lat="47.28822" lon="4.91303">
        <ele>416.295</ele>
        <time>2012-03-23T10:35:06Z</time>
      </trkpt>
      <trkpt lat="47.28828" lon="4.91292">
        <ele>411.945</ele>
        <time>2012-03-23T10:35:17Z</time>
      </trkpt>
      <trkpt lat="47.28845" lon="4.91275">
        <ele>408.614</ele>
        <time>2012-03-23T10:35:28Z</time>
      </trkpt>
      <trkpt lat="47.28857" lon="4.91262">
        <ele>406.663</ele>
        <time>2012-03-23T10:35:39Z</time>
      </trkpt>
      <trkpt lat="47.28868" lon="4.91252">
        <ele>404.283</ele>
        <time>2012-03-23T10:35:50Z</time>
      </trkpt>
      <trkpt lat="47.28882" lon="4.91233">
        <ele>399.043</ele>
        <time>2012-03-23T10:36:01Z</time>
      </trkpt>
      <trkpt lat="47.2889" lon="4.91222">
        <ele>394.52</ele>
        <time>2012-03-23T10:36:12Z</time>
      </trkpt>
      <trkpt lat="47.28897" lon="4.91212">
        <ele>391.696</ele>
        <time>2012-03-23T10:36:23Z</time>
      </trkpt>
      <trkpt lat="47.28907" lon="4.91197">
        <ele>388.236</ele>
        <time>2012-03-23T10:36:34Z</time>
      </trkpt>
      <trkpt lat="47.28915" lon="4.91185">
        <ele>386.174</ele>
        <time>2012-03-23T10:36:45Z</time>
      </trkpt>
      <trkpt lat="47.28922" lon="4.9117">
        <ele>383.942</ele>
        <time>2012-03-23T10:36:56Z</time>
      </trkpt>
      <trkpt lat="47.28937" lon="4.91152">
        <ele>380.401</ele>
        <time>2012-03-23T10:37:07Z</time>
      </trkpt>
      <trkpt lat="47.28943" lon="4.91138">
        <ele>377.321</ele>
        <time>2012-03-23T10:37:18Z</time>
      </trkpt>
      <trkpt lat="47.28937" lon="4.91133">
        <ele>374.332</ele>
        <time>2012-03-23T10:37:29Z</time>
      </trkpt>
      <trkpt lat="47.2893" lon="4.91137">
        <ele>372.183</ele>
        <time>2012-03-23T10:37:40Z</time>
      </trkpt>
      <trkpt lat="47.28923" lon="4.91132">
        <ele>372.061</ele>
        <time>2012-03-23T10:37:51Z</time>
      </trkpt>
      <trkpt lat="47.28912" lon="4.91132">
        <ele>374.045</ele>
        <time>2012-03-23T10:38:02Z</time>
      </trkpt>
      <trkpt lat="47.28902" lon="4.91125">
        <ele>376.272</ele>
        <time>2012-03-23T10:38:13Z</time>
      </trkpt>
      <trkpt lat="47.28893" lon="4.91115">
        <ele>380.283</ele>
        <time>2012-03-23T10:38:24Z</time>
      </trkpt>
      <trkpt lat="47.28883" lon="4.91103">
        <ele>384.68</ele>
        <time>2012-03-23T10:38:35Z</time>
      </trkpt>
      <trkpt lat="47.28873" lon="4.91093">
        <ele>385.873</ele>
        <time>2012-03-23T10:38:46Z</time>
      </trkpt>
      <trkpt lat="47.28858" lon="4.9108">
        <ele>384.755</ele>
        <time>2012-03-23T10:38:57Z</time>
      </trkpt>
      <trkpt lat="47.28852" lon="4.91072">
        <ele>384.241</ele>
        <time>2012-03-23T10:39:08Z</time>
      </trkpt>
      <trkpt lat="47.28842" lon="4.91062">
        <ele>384.766</ele>
        <time>2012-03-23T10:39:19Z</time>
      </trkpt>
      <trkpt lat="47.28828" lon="4.9105">
        <ele>384.416</ele>
        <time>2012-03-23T10:39:30Z</time>
      </trkpt>
      <trkpt lat="47.2882" lon="4.91042">
        <ele>386.159</ele>
        <time>2012-03-23T10:39:41Z</time>
      </trkpt>
      <trkpt lat="47.28807" lon="4.9103">
        <ele>385.605</ele>
        <time>2012-03-23T10:39:52Z</time>
      </trkpt>
      <trkpt lat="47.28793" lon="4.91015">
        <ele>384.05</ele>
        <time>2012-03-23T10:40:03Z</time>
      </trkpt>
      <trkpt lat="47.28782" lon="4.91005">
        <ele>381.821</ele>
        <time>2012-03-23T10:40:14Z</time>
      </trkpt>
      <trkpt lat="47.28765" lon="4.90993">
        <ele>383.061</ele>
        <time>2012-03-23T10:40:25Z</time>
      </trkpt>
      <trkpt lat="47.28753" lon="4.90985">
        <ele>380.569</ele>
        <time>2012-03-23T10:40:36Z</time>
      </trkpt>
      <trkpt lat="47.28743" lon="4.90977">
        <ele>379.821</ele>
        <time>2012-03-23T10:40:47Z</time>
      </trkpt>
      <trkpt lat="47.28728" lon="4.90965">
        <ele>379.788</ele>
        <time>2012-03-23T10:40:58Z</time>
      </trkpt>
      <trkpt lat="47.28717" lon="4.90957">
        <ele>381.672</ele>
        <time>2012-03-23T10:41:09Z</time>
      </trkpt>
      <trkpt lat="47.28702" lon="4.90948">
        <ele>383.247</ele>
        <time>2012-03-23T10:41:20Z</time>
      </trkpt>
      <trkpt lat="47.28692" lon="4.90938">
        <ele>381.796</ele>
        <time>2012-03-23T10:41:31Z</time>
      </trkpt>
      <trkpt lat="47.28682" lon="4.90922">
        <ele>381.203</ele>
        <time>2012-03-23T10:41:42Z</time>
      </trkpt>
      <trkpt lat="47.28667" lon="4.90907">
        <ele>381.865</ele>
        <time>2012-03-23T10:41:53Z</time>
      </trkpt>
      <trkpt lat="47.28653" lon="4.90897">
        <ele>384.506</ele>
        <time>2012-03-23T10:42:04Z</time>
      </trkpt>
      <trkpt lat="47.28645" lon="4.9089">
        <ele>384.994</ele>
        <time>2012-03-23T10:42:15Z</time>
      </trkpt>
      <trkpt lat="47.28625" lon="4.9088">
        <ele>382.58</ele>
        <time>2012-03-23T10:42:26Z</time>
      </trkpt>
      <trkpt lat="47.28607" lon="4.90872">
        <ele>384.159</ele>
        <time>2012-03-23T10:42:37Z</time>
      </trkpt>
      <trkpt lat="47.2859" lon="4.90865">
        <ele>384.156</ele>
        <time>2012-03-23T10:42:48Z</time>
      </trkpt>
      <trkpt lat="47.28573" lon="4.90863">
        <ele>385.479</ele>
        <time>2012-03-23T10:42:59Z</time>
      </trkpt>
      <trkpt lat="47.28567" lon="4.90855">
        <ele>386.554</ele>
        <time>2012-03-23T10:43:10Z</time>
      </trkpt>
      <trkpt lat="47.28552" lon="4.90848">
        <ele>386.635</ele>
        <time>2012-03-23T10:43:21Z</time>
      </trkpt>
      <trkpt lat="47.28533" lon="4.90845">
        <ele>386.473</ele>
        <time>2012-03-23T10:43:32Z</time>
      </trkpt>
      <trkpt lat="47.28525" lon="4.90843">
        <ele>386.5</ele>
        <time>2012-03-23T10:43:43Z</time>
      </trkpt>
      <trkpt lat="47.28512" lon="4.9084">
        <ele>387.988</ele>
        <time>2012-03-23T10:43:54Z</time>
      </trkpt>
      <trkpt lat="47.28493" lon="4.90835">
        <ele>389.224</ele>
        <time>2012-03-23T10:44:05Z</time>
      </trkpt>
      <trkpt lat="47.28477" lon="4.90828">
        <ele>388.992</ele>
        <time>2012-03-23T10:44:16Z</time>
      </trkpt>
      <trkpt lat="47.28458" lon="4.90822">
        <ele>391.018</ele>
        <time>2012-03-23T10:44:27Z</time>
      </trkpt>
      <trkpt lat="47.28442" lon="4.90815">
        <ele>388.992</ele>
        <time>2012-03-23T10:44:38Z</time>
      </trkpt>
      <trkpt lat="47.28427" lon="4.90808">
        <ele>389.877</ele>
        <time>2012-03-23T10:44:49Z</time>
      </trkpt>
      <trkpt lat="47.28418" lon="4.90802">
        <ele>390.831</ele>
        <time>2012-03-23T10:45:00Z</time>
      </trkpt>
      <trkpt lat="47.284" lon="4.9079">
        <ele>393.431</ele>
        <time>2012-03-23T10:45:11Z</time>
      </trkpt>
      <trkpt lat="47.28383" lon="4.9078">
        <ele>393.387</ele>
        <time>2012-03-23T10:45:22Z</time>
      </trkpt>
      <trkpt lat="47.28365" lon="4.90772">
        <ele>394.62</ele>
        <time>2012-03-23T10:45:33Z</time>
      </trkpt>
      <trkpt lat="47.28355" lon="4.90765">
        <ele>399.553</ele>
        <time>2012-03-23T10:45:44Z</time>
      </trkpt>
      <trkpt lat="47.28347" lon="4.90757">
        <ele>399.891</ele>
        <time>2012-03-23T10:45:55Z</time>
      </trkpt>
      <trkpt lat="47.28332" lon="4.90742">
        <ele>401.159</ele>
        <time>2012-03-23T10:46:06Z</time>
      </trkpt>
      <trkpt lat="47.2832" lon="4.90732">
        <ele>401.407</ele>
        <time>2012-03-23T10:46:17Z</time>
      </trkpt>
      <trkpt lat="47.28308" lon="4.9072">
        <ele>403.182</ele>
        <time>2012-03-23T10:46:28Z</time>
      </trkpt>
      <trkpt lat="47.28295" lon="4.90708">
        <ele>403.063</ele>
        <time>2012-03-23T10:46:39Z</time>
      </trkpt>
      <trkpt lat="47.28283" lon="4.90697">
        <ele>403.123</ele>
        <time>2012-03-23T10:46:50Z</time>
      </trkpt>
      <trkpt lat="47.28268" lon="4.90678">
        <ele>404.763</ele>
        <time>2012-03-23T10:47:01Z</time>
      </trkpt>
      <trkpt lat="47.28253" lon="4.90665">
        <ele>402.179</ele>
        <time>2012-03-23T10:47:12Z</time>
      </trkpt>
      <trkpt lat="47.28235" lon="4.9065">
        <ele>400.505</ele>
        <time>2012-03-23T10:47:23Z</time>
      </trkpt>
      <trkpt lat="47.2822" lon="4.90638">
        <ele>399.863</ele>
        <time>2012-03-23T10:47:34Z</time>
      </trkpt>
      <trkpt lat="47.2821" lon="4.9063">
        <ele>399.293</ele>
        <time>2012-03-23T10:47:45Z</time>
      </trkpt>
      <trkpt lat="47.28195" lon="4.90617">
        <ele>399.998</ele>
        <time>2012-03-23T10:47:56Z</time>
      </trkpt>
      <trkpt lat="47.28185" lon="4.90605">
        <ele>402.094</ele>
        <time>2012-03-23T10:48:07Z</time>
      </trkpt>
      <trkpt lat="47.28172" lon="4.90592">
        <ele>402.575</ele>
        <time>2012-03-23T10:48:18Z</time>
      </trkpt>
      <trkpt lat="47.28158" lon="4.9058">
        <ele>399.866</ele>
        <time>2012-03-23T10:48:29Z</time>
      </trkpt>
      <trkpt lat="47.2815" lon="4.90572">
        <ele>399.787</ele>
        <time>2012-03-23T10:48:40Z</time>
      </trkpt>
      <trkpt lat="47.28133" lon="4.90563">
        <ele>401.194</ele>
        <time>2012-03-23T10:48:51Z</time>
      </trkpt>
      <trkpt lat="47.28115" lon="4.90553">
        <ele>401.382</ele>
        <time>2012-03-23T10:49:02Z</time>
      </trkpt>
      <trkpt lat="47.28108" lon="4.90547">
        <ele>402.374</ele>
        <time>2012-03-23T10:49:13Z</time>
      </trkpt>
      <trkpt lat="47.28097" lon="4.90537">
        <ele>405.057</ele>
        <time>2012-03-23T10:49:24Z</time>
      </trkpt>
      <trkpt lat="47.2808" lon="4.9053">
        <ele>405.946</ele>
        <time>2012-03-23T10:49:35Z</time>
      </trkpt>
      <trkpt lat="47.28067" lon="4.90528">
        <ele>406.797</ele>
        <time>2012-03-23T10:49:46Z</time>
      </trkpt>
      <trkpt lat="47.28057" lon="4.90523">
        <ele>407.79</ele>
        <time>2012-03-23T10:49:57Z</time>
      </trkpt>
      <trkpt lat="47.28038" lon="4.9052">
        <ele>408.451</ele>
        <time>2012-03-23T10:50:08Z</time>
      </trkpt>
      <trkpt lat="47.28023" lon="4.90515">
        <ele>410.442</ele>
        <time>2012-03-23T10:50:19Z</time>
      </trkpt>
      <trkpt lat="47.28017" lon="4.9051">
        <ele>412.194</ele>
        <time>2012-03-23T10:50:30Z</time>
      </trkpt>
      <trkpt lat="47.27998" lon="4.90505">
        <ele>413.93</ele>
        <time>2012-03-23T10:50:41Z</time>
      </trkpt>
      <trkpt lat="47.27983" lon="4.90498">
        <ele>414.231</ele>
        <time>2012-03-23T10:50:52Z</time>
      </trkpt>
      <trkpt lat="47.27963" lon="4.90493">
        <ele>412.192</ele>
        <time>2012-03-23T10:51:03Z</time>
      </trkpt>
      <trkpt lat="47.27955" lon="4.90492">
        <ele>413.275</ele>
        <time>2012-03-23T10:51:14Z</time>
      </trkpt>
      <trkpt lat="47.27938" lon="4.90487">
        <ele>411.217</ele>
        <time>2012-03-23T10:51:25Z</time>
      </trkpt>
      <trkpt lat="47.27922" lon="4.90483">
        <ele>411.219</ele>
        <time>2012-03-23T10:51:36Z</time>
      </trkpt>
      <trkpt lat="47.27908" lon="4.90478">
        <ele>412.982</ele>
        <time>2012-03-23T10:51:47Z</time>
      </trkpt>
      <trkpt lat="47.2789" lon="4.90472">
        <ele>414.807</ele>
        <time>2012-03-23T10:51:58Z</time>
      </trkpt>
      <trkpt lat="47.27878" lon="4.90465">
        <ele>413.391</ele>
        <time>2012-03-23T10:52:09Z</time>
      </trkpt>
      <trkpt lat="47.27863" lon="4.90453">
        <ele>409.837</ele>
        <time>2012-03-23T10:52:20Z</time>
      </trkpt>
      <trkpt lat="47.27848" lon="4.90443">
        <ele>409.63</ele>
        <time>2012-03-23T10:52:31Z</time>
      </trkpt>
      <trkpt lat="47.27833" lon="4.90438">
        <ele>409.587</ele>
        <time>2012-03-23T10:52:42Z</time>
      </trkpt>
      <trkpt lat="47.27823" lon="4.90438">
        <ele>410.058</ele>
        <time>2012-03-23T10:52:53Z</time>
      </trkpt>
      <trkpt lat="47.27808" lon="4.90442">
        <ele>409.505</ele>
        <time>2012-03-23T10:53:04Z</time>
      </trkpt>
      <trkpt lat="47.27787" lon="4.90448">
        <ele>409.36</ele>
        <time>2012-03-23T10:53:15Z</time>
      </trkpt>
      <trkpt lat="47.27768" lon="4.90453">
        <ele>408.724</ele>
        <time>2012-03-23T10:53:26Z</time>
      </trkpt>
      <trkpt lat="47.27752" lon="4.90458">
        <ele>409.071</ele>
        <time>2012-03-23T10:53:37Z</time>
      </trkpt>
      <trkpt lat="47.27737" lon="4.90463">
        <ele>410.905</ele>
        <time>2012-03-23T10:53:48Z</time>
      </trkpt>
      <trkpt lat="47.27715" lon="4.90472">
        <ele>411.993</ele>
        <time>2012-03-23T10:53:59Z</time>
      </trkpt>
      <trkpt lat="47.27702" lon="4.90477">
        <ele>412.821</ele>
        <time>2012-03-23T10:54:10Z</time>
      </trkpt>
      <trkpt lat="47.27688" lon="4.90488">
        <ele>413.296</ele>
        <time>2012-03-23T10:54:21Z</time>
      </trkpt>
      <trkpt lat="47.27675" lon="4.90498">
        <ele>416.217</ele>
        <time>2012-03-23T10:54:32Z</time>
      </trkpt>
      <trkpt lat="47.27663" lon="4.90508">
        <ele>417.232</ele>
        <time>2012-03-23T10:54:43Z</time>
      </trkpt>
      <trkpt lat="47.27645" lon="4.90518">
        <ele>417.958</ele>
        <time>2012-03-23T10:54:54Z</time>
      </trkpt>
      <trkpt lat="47.27632" lon="4.90525">
        <ele>420.702</ele>
        <time>2012-03-23T10:55:05Z</time>
      </trkpt>
      <trkpt lat="47.27618" lon="4.90533">
        <ele>421.853</ele>
        <time>2012-03-23T10:55:16Z</time>
      </trkpt>
      <trkpt lat="47.27603" lon="4.90543">
        <ele>421.197</ele>
        <time>2012-03-23T10:55:27Z</time>
      </trkpt>
      <trkpt lat="47.27593" lon="4.90558">
        <ele>421.576</ele>
        <time>2012-03-23T10:55:38Z</time>
      </trkpt>
      <trkpt lat="47.27577" lon="4.90573">
        <ele>422.944</ele>
        <time>2012-03-23T10:55:49Z</time>
      </trkpt>
      <trkpt lat="47.27568" lon="4.90582">
        <ele>423.715</ele>
        <time>2012-03-23T10:56:00Z</time>
      </trkpt>
      <trkpt lat="47.27555" lon="4.90595">
        <ele>423.503</ele>
        <time>2012-03-23T10:56:11Z</time>
      </trkpt>
      <trkpt lat="47.27542" lon="4.9061">
        <ele>423.377</ele>
        <time>2012-03-23T10:56:22Z</time>
      </trkpt>
      <trkpt lat="47.27528" lon="4.90627">
        <ele>424.496</ele>
        <time>2012-03-23T10:56:33Z</time>
      </trkpt>
      <trkpt lat="47.27515" lon="4.90647">
        <ele>424.851</ele>
        <time>2012-03-23T10:56:44Z</time>
      </trkpt>
      <trkpt lat="47.27503" lon="4.90663">
        <ele>426.4</ele>
        <time>2012-03-23T10:56:55Z</time>
      </trkpt>
      <trkpt lat="47.27493" lon="4.9068">
        <ele>427.575</ele>
        <time>2012-03-23T10:57:06Z</time>
      </trkpt>
      <trkpt lat="47.27483" lon="4.90692">
        <ele>430.085</ele>
        <time>2012-03-23T10:57:17Z</time>
      </trkpt>
      <trkpt lat="47.27473" lon="4.907">
        <ele>429.793</ele>
        <time>2012-03-23T10:57:28Z</time>
      </trkpt>
      <trkpt lat="47.2746" lon="4.9071">
        <ele>429.803</ele>
        <time>2012-03-23T10:57:39Z</time>
      </trkpt>
      <trkpt lat="47.27447" lon="4.90718">
        <ele>428.756</ele>
        <time>2012-03-23T10:57:50Z</time>
      </trkpt>
      <trkpt lat="47.27432" lon="4.90727">
        <ele>428.254</ele>
        <time>2012-03-23T10:58:01Z</time>
      </trkpt>
      <trkpt lat="47.2742" lon="4.90735">
        <ele>428.669</ele>
        <time>2012-03-23T10:58:12Z</time>
      </trkpt>
      <trkpt lat="47.27408" lon="4.90742">
        <ele>430.783</ele>
        <time>2012-03-23T10:58:23Z</time>
      </trkpt>
      <trkpt lat="47.274" lon="4.90747">
        <ele>428.162</ele>
        <time>2012-03-23T10:58:34Z</time>
      </trkpt>
      <trkpt lat="47.27382" lon="4.90757">
        <ele>424.542</ele>
        <time>2012-03-23T10:58:45Z</time>
      </trkpt>
      <trkpt lat="47.27363" lon="4.90765">
        <ele>421.026</ele>
        <time>2012-03-23T10:58:56Z</time>
      </trkpt>
      <trkpt lat="47.27352" lon="4.90782">
        <ele>417.731</ele>
        <time>2012-03-23T10:59:07Z</time>
      </trkpt>
      <trkpt lat="47.27345" lon="4.90793">
        <ele>421.856</ele>
        <time>2012-03-23T10:59:18Z</time>
      </trkpt>
      <trkpt lat="47.27345" lon="4.90795">
        <ele>422.643</ele>
        <time>2012-03-23T10:59:29Z</time>
      </trkpt>
      <trkpt lat="47.27345" lon="4.90797">
        <ele>422.285</ele>
        <time>2012-03-23T10:59:40Z</time>
      </trkpt>
      <trkpt lat="47.27345" lon="4.90797">
        <ele>422.285</ele>
        <time>2012-03-23T10:59:51Z</time>
      </trkpt>
      <trkpt lat="47.27343" lon="4.90798">
        <ele>422.681</ele>
        <time>2012-03-23T11:00:02Z</time>
      </trkpt>
      <trkpt lat="47.27342" lon="4.908">
        <ele>423.447</ele>
        <time>2012-03-23T11:00:13Z</time>
      </trkpt>
      <trkpt lat="47.27342" lon="4.90798">
        <ele>423.817</ele>
        <time>2012-03-23T11:00:24Z</time>
      </trkpt>
      <trkpt lat="47.27342" lon="4.908">
        <ele>423.27</ele>
        <time>2012-03-23T11:00:35Z</time>
      </trkpt>
      <trkpt lat="47.27342" lon="4.908">
        <ele>422.782</ele>
        <time>2012-03-23T11:00:46Z</time>
      </trkpt>
      <trkpt lat="47.27342" lon="4.908">
        <ele>422.782</ele>
        <time>2012-03-23T11:00:57Z</time>
      </trkpt>
      <trkpt lat="47.27342" lon="4.908">
        <ele>422.782</ele>
        <time>2012-03-23T11:01:08Z</time>
      </trkpt>
      <trkpt lat="47.27342" lon="4.90802">
        <ele>422.375</ele>
        <time>2012-03-23T11:01:19Z</time>
      </trkpt>
      <trkpt lat="47.27342" lon="4.90807">
        <ele>421.397</ele>
        <time>2012-03-23T11:01:30Z</time>
      </trkpt>
      <trkpt lat="47.27343" lon="4.90818">
        <ele>422.555</ele>
        <time>2012-03-23T11:01:41Z</time>
      </trkpt>
      <trkpt lat="47.27345" lon="4.90822">
        <ele>423</ele>
        <time>2012-03-23T11:01:52Z</time>
      </trkpt>
      <trkpt lat="47.27347" lon="4.90823">
        <ele>423.595</ele>
        <time>2012-03-23T11:02:03Z</time>
      </trkpt>
      <trkpt lat="47.27352" lon="4.90823">
        <ele>423.798</ele>
        <time>2012-03-23T11:02:14Z</time>
      </trkpt>
      <trkpt lat="47.27357" lon="4.90827">
        <ele>424.198</ele>
        <time>2012-03-23T11:02:25Z</time>
      </trkpt>
      <trkpt lat="47.27358" lon="4.90835">
        <ele>424.966</ele>
        <time>2012-03-23T11:02:36Z</time>
      </trkpt>
      <trkpt lat="47.27358" lon="4.90842">
        <ele>424.269</ele>
        <time>2012-03-23T11:02:47Z</time>
      </trkpt>
      <trkpt lat="47.27358" lon="4.90847">
        <ele>425.377</ele>
        <time>2012-03-23T11:02:58Z</time>
      </trkpt>
      <trkpt lat="47.2736" lon="4.90853">
        <ele>424.699</ele>
        <time>2012-03-23T11:03:09Z</time>
      </trkpt>
      <trkpt lat="47.27363" lon="4.9086">
        <ele>424.475</ele>
        <time>2012-03-23T11:03:20Z</time>
      </trkpt>
      <trkpt lat="47.27367" lon="4.90867">
        <ele>425.495</ele>
        <time>2012-03-23T11:03:31Z</time>
      </trkpt>
      <trkpt lat="47.27372" lon="4.90877">
        <ele>426.038</ele>
        <time>2012-03-23T11:03:42Z</time>
      </trkpt>
      <trkpt lat="47.27378" lon="4.90887">
        <ele>425.849</ele>
        <time>2012-03-23T11:03:53Z</time>
      </trkpt>
      <trkpt lat="47.27383" lon="4.90893">
        <ele>425.685</ele>
        <time>2012-03-23T11:04:04Z</time>
      </trkpt>
      <trkpt lat="47.27388" lon="4.90902">
        <ele>426.299</ele>
        <time>2012-03-23T11:04:15Z</time>
      </trkpt>
      <trkpt lat="47.27395" lon="4.90912">
        <ele>428.161</ele>
        <time>2012-03-23T11:04:26Z</time>
      </trkpt>
      <trkpt lat="47.27402" lon="4.90917">
        <ele>430.657</ele>
        <time>2012-03-23T11:04:37Z</time>
      </trkpt>
      <trkpt lat="47.27408" lon="4.9092">
        <ele>431.709</ele>
        <time>2012-03-23T11:04:48Z</time>
      </trkpt>
      <trkpt lat="47.2741" lon="4.90922">
        <ele>432.322</ele>
        <time>2012-03-23T11:04:59Z</time>
      </trkpt>
      <trkpt lat="47.27418" lon="4.90927">
        <ele>432.628</ele>
        <time>2012-03-23T11:05:10Z</time>
      </trkpt>
      <trkpt lat="47.27423" lon="4.90932">
        <ele>434.011</ele>
        <time>2012-03-23T11:05:21Z</time>
      </trkpt>
      <trkpt lat="47.27432" lon="4.90937">
        <ele>434.914</ele>
        <time>2012-03-23T11:05:32Z</time>
      </trkpt>
      <trkpt lat="47.2744" lon="4.90938">
        <ele>435.491</ele>
        <time>2012-03-23T11:05:43Z</time>
      </trkpt>
      <trkpt lat="47.27447" lon="4.90943">
        <ele>437.151</ele>
        <time>2012-03-23T11:05:54Z</time>
      </trkpt>
      <trkpt lat="47.27457" lon="4.90948">
        <ele>437.79</ele>
        <time>2012-03-23T11:06:05Z</time>
      </trkpt>
      <trkpt lat="47.2747" lon="4.90953">
        <ele>438.424</ele>
        <time>2012-03-23T11:06:16Z</time>
      </trkpt>
      <trkpt lat="47.27478" lon="4.90957">
        <ele>440.393</ele>
        <time>2012-03-23T11:06:27Z</time>
      </trkpt>
      <trkpt lat="47.27487" lon="4.90962">
        <ele>442.297</ele>
        <time>2012-03-23T11:06:38Z</time>
      </trkpt>
      <trkpt lat="47.27498" lon="4.90967">
        <ele>445.438</ele>
        <time>2012-03-23T11:06:49Z</time>
      </trkpt>
      <trkpt lat="47.27507" lon="4.90977">
        <ele>448.189</ele>
        <time>2012-03-23T11:07:00Z</time>
      </trkpt>
      <trkpt lat="47.27515" lon="4.90988">
        <ele>452.229</ele>
        <time>2012-03-23T11:07:11Z</time>
      </trkpt>
      <trkpt lat="47.27522" lon="4.91002">
        <ele>455.364</ele>
        <time>2012-03-23T11:07:22Z</time>
      </trkpt>
      <trkpt lat="47.27527" lon="4.91015">
        <ele>458.953</ele>
        <time>2012-03-23T11:07:33Z</time>
      </trkpt>
      <trkpt lat="47.27533" lon="4.91027">
        <ele>462.281</ele>
        <time>2012-03-23T11:07:44Z</time>
      </trkpt>
      <trkpt lat="47.2754" lon="4.91033">
        <ele>463.487</ele>
        <time>2012-03-23T11:07:55Z</time>
      </trkpt>
      <trkpt lat="47.27545" lon="4.91042">
        <ele>464.441</ele>
        <time>2012-03-23T11:08:06Z</time>
      </trkpt>
      <trkpt lat="47.27552" lon="4.91053">
        <ele>466.344</ele>
        <time>2012-03-23T11:08:17Z</time>
      </trkpt>
      <trkpt lat="47.2756" lon="4.91065">
        <ele>469.075</ele>
        <time>2012-03-23T11:08:28Z</time>
      </trkpt>
      <trkpt lat="47.27568" lon="4.91075">
        <ele>471.255</ele>
        <time>2012-03-23T11:08:39Z</time>
      </trkpt>
      <trkpt lat="47.27577" lon="4.91087">
        <ele>472.446</ele>
        <time>2012-03-23T11:08:50Z</time>
      </trkpt>
      <trkpt lat="47.27585" lon="4.91097">
        <ele>473.992</ele>
        <time>2012-03-23T11:09:01Z</time>
      </trkpt>
      <trkpt lat="47.27597" lon="4.91107">
        <ele>474.955</ele>
        <time>2012-03-23T11:09:12Z</time>
      </trkpt>
      <trkpt lat="47.27607" lon="4.91117">
        <ele>477.106</ele>
        <time>2012-03-23T11:09:23Z</time>
      </trkpt>
      <trkpt lat="47.27617" lon="4.91127">
        <ele>478.89</ele>
        <time>2012-03-23T11:09:34Z</time>
      </trkpt>
      <trkpt lat="47.27625" lon="4.91138">
        <ele>480.093</ele>
        <time>2012-03-23T11:09:45Z</time>
      </trkpt>
      <trkpt lat="47.27635" lon="4.9115">
        <ele>482.325</ele>
        <time>2012-03-23T11:09:56Z</time>
      </trkpt>
      <trkpt lat="47.27642" lon="4.91165">
        <ele>484.659</ele>
        <time>2012-03-23T11:10:07Z</time>
      </trkpt>
      <trkpt lat="47.2765" lon="4.9118">
        <ele>486.516</ele>
        <time>2012-03-23T11:10:18Z</time>
      </trkpt>
      <trkpt lat="47.2766" lon="4.91195">
        <ele>487.692</ele>
        <time>2012-03-23T11:10:29Z</time>
      </trkpt>
      <trkpt lat="47.27668" lon="4.9121">
        <ele>487.806</ele>
        <time>2012-03-23T11:10:40Z</time>
      </trkpt>
      <trkpt lat="47.27677" lon="4.91223">
        <ele>488.839</ele>
        <time>2012-03-23T11:10:51Z</time>
      </trkpt>
      <trkpt lat="47.27683" lon="4.91235">
        <ele>490.791</ele>
        <time>2012-03-23T11:11:02Z</time>
      </trkpt>
      <trkpt lat="47.2769" lon="4.91248">
        <ele>491.475</ele>
        <time>2012-03-23T11:11:13Z</time>
      </trkpt>
      <trkpt lat="47.27698" lon="4.9126">
        <ele>492.634</ele>
        <time>2012-03-23T11:11:24Z</time>
      </trkpt>
      <trkpt lat="47.27707" lon="4.91273">
        <ele>494.376</ele>
        <time>2012-03-23T11:11:35Z</time>
      </trkpt>
      <trkpt lat="47.27713" lon="4.91287">
        <ele>496.409</ele>
        <time>2012-03-23T11:11:46Z</time>
      </trkpt>
      <trkpt lat="47.2772" lon="4.913">
        <ele>497.63</ele>
        <time>2012-03-23T11:11:57Z</time>
      </trkpt>
      <trkpt lat="47.27727" lon="4.91317">
        <ele>499.32</ele>
        <time>2012-03-23T11:12:08Z</time>
      </trkpt>
      <trkpt lat="47.27733" lon="4.91333">
        <ele>500.465</ele>
        <time>2012-03-23T11:12:19Z</time>
      </trkpt>
      <trkpt lat="47.27738" lon="4.9135">
        <ele>502.028</ele>
        <time>2012-03-23T11:12:30Z</time>
      </trkpt>
      <trkpt lat="47.27747" lon="4.91368">
        <ele>502.988</ele>
        <time>2012-03-23T11:12:41Z</time>
      </trkpt>
      <trkpt lat="47.27752" lon="4.91385">
        <ele>504.421</ele>
        <time>2012-03-23T11:12:52Z</time>
      </trkpt>
      <trkpt lat="47.27758" lon="4.91403">
        <ele>505.825</ele>
        <time>2012-03-23T11:13:03Z</time>
      </trkpt>
      <trkpt lat="47.27765" lon="4.9142">
        <ele>506.338</ele>
        <time>2012-03-23T11:13:14Z</time>
      </trkpt>
      <trkpt lat="47.27772" lon="4.91437">
        <ele>507.188</ele>
        <time>2012-03-23T11:13:25Z</time>
      </trkpt>
      <trkpt lat="47.27778" lon="4.91455">
        <ele>508.466</ele>
        <time>2012-03-23T11:13:36Z</time>
      </trkpt>
      <trkpt lat="47.27783" lon="4.91472">
        <ele>510.274</ele>
        <time>2012-03-23T11:13:47Z</time>
      </trkpt>
      <trkpt lat="47.27788" lon="4.91485">
        <ele>511.62</ele>
        <time>2012-03-23T11:13:58Z</time>
      </trkpt>
      <trkpt lat="47.27792" lon="4.91498">
        <ele>513.466</ele>
        <time>2012-03-23T11:14:09Z</time>
      </trkpt>
      <trkpt lat="47.27793" lon="4.91505">
        <ele>514.237</ele>
        <time>2012-03-23T11:14:20Z</time>
      </trkpt>
      <trkpt lat="47.27793" lon="4.91505">
        <ele>513.995</ele>
        <time>2012-03-23T11:14:31Z</time>
      </trkpt>
      <trkpt lat="47.27795" lon="4.91508">
        <ele>513.883</ele>
        <time>2012-03-23T11:14:42Z</time>
      </trkpt>
      <trkpt lat="47.27797" lon="4.9151">
        <ele>513.918</ele>
        <time>2012-03-23T11:14:53Z</time>
      </trkpt>
      <trkpt lat="47.27797" lon="4.9151">
        <ele>513.928</ele>
        <time>2012-03-23T11:15:04Z</time>
      </trkpt>
    </trkseg>
  </trk>
</gpx>